Time;durP1;ratioP1;P1;durP2;ratioP2;P2;SDS_P1;SDS_P2;PMS_P1;PMS_P2;Temp;Humidity;BMP_temperature;BMP_pressure;BME280_temperature;BME280_humidity;BME280_pressure;Samples;Min_cycle;Max_cycle;Signal;HPM_P1;HPM_P2
2021/05/27 00:08:41;;;;;;;8.65;5.05;;;10.80;99.90;;;;;;6725895;88;20539;-78
2021/05/27 00:18:41;;;;;;;8.15;4.75;;;10.80;99.90;;;;;;6726255;88;20237;-77
2021/05/27 00:28:43;;;;;;;8.27;4.40;;;10.90;99.90;;;;;;6722131;88;20202;-75
2021/05/27 00:38:43;;;;;;;8.43;4.80;;;11.00;99.90;;;;;;6733816;88;20224;-76
2021/05/27 00:49:02;;;;;;;7.22;4.37;;;10.90;99.90;;;;;;6723505;88;20207;-75
2021/05/27 00:59:03;;;;;;;6.82;4.70;;;11.00;99.90;;;;;;6737391;88;20236;-77
2021/05/27 01:09:05;;;;;;;10.13;4.40;;;11.10;99.90;;;;;;6721930;88;20621;-74
2021/05/27 01:19:05;;;;;;;8.23;4.72;;;11.20;99.90;;;;;;6719528;88;20186;-77
2021/05/27 01:29:06;;;;;;;8.18;4.95;;;11.20;99.90;;;;;;6719169;88;20251;-75
2021/05/27 01:39:10;;;;;;;9.63;5.60;;;11.20;99.90;;;;;;6717649;88;20314;-76
2021/05/27 01:49:10;;;;;;;11.63;6.15;;;11.20;99.90;;;;;;6718112;88;20194;-74
2021/05/27 01:59:11;;;;;;;10.52;5.93;;;11.20;99.90;;;;;;6718156;88;20189;-75
2021/05/27 02:09:12;;;;;;;12.48;5.62;;;11.20;99.90;;;;;;6717631;88;20348;-74
2021/05/27 02:19:12;;;;;;;8.55;5.37;;;11.10;99.90;;;;;;6718665;88;20208;-75
2021/05/27 02:29:13;;;;;;;10.35;5.37;;;11.20;99.90;;;;;;6719240;88;20802;-76
2021/05/27 02:39:14;;;;;;;9.45;5.75;;;11.10;99.90;;;;;;6718476;88;20309;-75
2021/05/27 02:49:14;;;;;;;11.40;5.63;;;11.00;99.90;;;;;;6718110;88;21011;-75
2021/05/27 02:59:15;;;;;;;10.48;5.85;;;11.00;99.90;;;;;;6717938;88;20515;-75
2021/05/27 03:09:15;;;;;;;11.60;6.40;;;11.00;99.90;;;;;;6716776;88;20202;-75
2021/05/27 03:19:16;;;;;;;15.43;6.60;;;11.00;99.90;;;;;;6717636;88;20185;-76
2021/05/27 03:29:17;;;;;;;8.70;6.00;;;10.90;99.90;;;;;;6722085;88;20194;-76
2021/05/27 03:39:18;;;;;;;8.15;5.97;;;10.80;99.90;;;;;;6720360;88;20190;-76
2021/05/27 03:49:18;;;;;;;9.75;5.82;;;10.90;99.90;;;;;;6719888;88;20621;-74
2021/05/27 04:09:39;;;;;;;9.27;6.03;;;11.00;99.90;;;;;;6719705;88;20190;-74
2021/05/27 04:19:39;;;;;;;10.45;6.53;;;11.00;99.90;;;;;;6719235;88;20206;-75
2021/05/27 04:29:40;;;;;;;11.38;6.80;;;11.00;99.90;;;;;;6719590;88;20212;-74
2021/05/27 04:39:40;;;;;;;10.43;6.60;;;11.00;99.90;;;;;;6718640;88;20197;-74
2021/05/27 04:49:41;;;;;;;11.63;7.25;;;11.00;99.90;;;;;;6718001;88;20672;-75
2021/05/27 04:59:41;;;;;;;12.32;6.90;;;10.90;99.90;;;;;;6720465;88;20219;-74
2021/05/27 05:09:42;;;;;;;10.98;7.20;;;11.00;99.90;;;;;;6721299;88;20226;-76
2021/05/27 05:19:42;;;;;;;9.07;6.10;;;10.90;99.90;;;;;;6719770;88;20372;-77
2021/05/27 05:29:43;;;;;;;10.02;5.65;;;11.00;99.90;;;;;;6720619;88;20209;-75
2021/05/27 05:39:43;;;;;;;9.98;6.43;;;11.20;99.90;;;;;;6709491;88;20633;-75
2021/05/27 05:49:44;;;;;;;9.40;5.93;;;11.20;99.90;;;;;;6718874;88;20692;-75
2021/05/27 05:59:44;;;;;;;15.02;6.75;;;11.20;99.90;;;;;;6718167;88;20698;-74
2021/05/27 06:09:45;;;;;;;9.93;6.22;;;11.20;99.90;;;;;;6719887;88;20870;-76
2021/05/27 06:19:45;;;;;;;10.60;6.60;;;11.30;99.90;;;;;;6727054;88;20170;-78
2021/05/27 06:29:46;;;;;;;11.20;6.87;;;11.50;99.90;;;;;;6726672;88;20316;-76
2021/05/27 06:39:46;;;;;;;9.30;6.35;;;11.60;99.90;;;;;;6733760;88;20204;-75
2021/05/27 06:49:47;;;;;;;9.90;6.07;;;11.90;99.90;;;;;;6725548;88;20193;-75
2021/05/27 06:59:48;;;;;;;11.02;5.35;;;12.00;99.90;;;;;;6722212;88;20645;-76
2021/05/27 07:09:48;;;;;;;9.38;5.60;;;11.90;99.90;;;;;;6730319;88;20166;-78
2021/05/27 07:19:51;;;;;;;8.93;5.15;;;12.00;99.90;;;;;;6725701;88;20196;-78
2021/05/27 07:29:52;;;;;;;8.52;4.22;;;12.20;99.90;;;;;;6718605;88;20303;-77
2021/05/27 07:39:52;;;;;;;9.80;4.80;;;12.30;99.90;;;;;;6718848;88;20429;-77
2021/05/27 07:49:53;;;;;;;12.13;5.60;;;12.00;99.90;;;;;;6722735;88;20643;-77
2021/05/27 07:59:54;;;;;;;8.57;4.80;;;11.60;99.90;;;;;;6727160;88;20344;-78
2021/05/27 08:09:54;;;;;;;10.60;5.50;;;11.30;99.90;;;;;;6716065;88;20212;-76
2021/05/27 08:19:55;;;;;;;10.32;5.97;;;11.30;99.90;;;;;;6717064;88;20189;-77
2021/05/27 08:29:55;;;;;;;9.38;5.95;;;11.40;99.90;;;;;;6717085;88;20208;-77
2021/05/27 08:39:56;;;;;;;13.48;7.18;;;11.30;99.90;;;;;;6709032;88;20223;-78
2021/05/27 08:49:58;;;;;;;16.35;9.25;;;11.20;99.90;;;;;;6711896;88;20206;-78
2021/05/27 08:59:58;;;;;;;15.82;9.57;;;11.00;99.90;;;;;;6714575;88;20185;-77
2021/05/27 09:10:05;;;;;;;17.02;10.32;;;11.10;99.90;;;;;;6715202;88;20702;-77
2021/05/27 09:20:14;;;;;;;19.98;10.88;;;11.30;99.90;;;;;;6715351;88;20329;-78
2021/05/27 09:30:16;;;;;;;17.00;10.40;;;11.40;99.90;;;;;;6719902;88;20372;-77
2021/05/27 09:40:33;;;;;;;21.73;12.30;;;11.40;99.90;;;;;;6718752;88;20254;-77
2021/05/27 09:50:40;;;;;;;18.62;11.05;;;11.60;99.90;;;;;;6735141;77;20756;-79
2021/05/27 10:00:43;;;;;;;24.85;13.05;;;11.40;99.90;;;;;;6732529;88;20335;-76
2021/05/27 10:10:44;;;;;;;28.30;14.30;;;10.90;99.90;;;;;;6719455;88;20182;-77
2021/05/27 10:20:45;;;;;;;23.60;12.18;;;10.90;99.90;;;;;;6713651;88;20225;-76
2021/05/27 10:30:46;;;;;;;18.75;10.80;;;11.20;99.90;;;;;;6721635;88;20639;-75
2021/05/27 10:40:50;;;;;;;16.30;10.38;;;11.20;99.90;;;;;;6716290;88;20207;-76
2021/05/27 11:00:58;;;;;;;17.70;10.85;;;11.70;99.90;;;;;;6720616;88;20286;-75
2021/05/27 11:11:37;;;;;;;13.18;8.15;;;11.90;99.90;;;;;;6727003;88;20296;-75
2021/05/27 11:21:43;;;;;;;12.68;6.50;;;12.00;99.90;;;;;;6726494;88;20182;-78
2021/05/27 11:31:46;;;;;;;15.77;6.40;;;11.80;99.90;;;;;;6721040;88;20173;-77
2021/05/27 11:41:47;;;;;;;13.98;7.18;;;11.70;99.90;;;;;;6722966;88;20690;-75
2021/05/27 11:51:48;;;;;;;14.23;7.03;;;11.90;99.90;;;;;;6729852;88;20215;-76
2021/05/27 12:01:52;;;;;;;10.82;6.47;;;12.00;99.90;;;;;;6726441;88;20227;-76
2021/05/27 12:11:54;;;;;;;11.55;7.93;;;12.10;99.90;;;;;;6725979;88;20317;-77
2021/05/27 12:21:56;;;;;;;13.25;7.43;;;12.20;99.90;;;;;;6724141;88;20284;-76
2021/05/27 12:31:57;;;;;;;13.95;7.80;;;12.40;99.90;;;;;;6723948;88;20181;-76
2021/05/27 12:41:59;;;;;;;13.68;7.65;;;12.40;99.90;;;;;;6721541;88;20229;-75
2021/05/27 12:51:59;;;;;;;14.48;7.95;;;12.50;99.90;;;;;;6723391;88;20285;-77
2021/05/27 13:02:01;;;;;;;11.70;7.87;;;12.80;99.90;;;;;;6727019;88;20771;-76
2021/05/27 13:12:01;;;;;;;13.05;7.93;;;12.90;99.90;;;;;;6719666;88;20645;-77
2021/05/27 13:22:04;;;;;;;17.33;7.37;;;13.20;99.90;;;;;;6718751;88;20232;-77
2021/05/27 13:32:19;;;;;;;9.82;5.72;;;13.50;99.90;;;;;;6719756;88;20282;-76
2021/05/27 13:42:21;;;;;;;9.07;5.80;;;13.60;99.90;;;;;;6718180;88;20208;-76
2021/05/27 13:52:22;;;;;;;9.90;6.32;;;13.40;99.90;;;;;;6718690;88;20536;-77
2021/05/27 14:02:22;;;;;;;10.73;5.97;;;13.30;99.90;;;;;;6720447;88;20198;-77
2021/05/27 14:12:23;;;;;;;13.30;6.47;;;13.30;99.90;;;;;;6722723;88;20215;-76
2021/05/27 14:22:24;;;;;;;9.87;5.50;;;13.60;99.90;;;;;;6721771;88;20284;-77
2021/05/27 14:32:24;;;;;;;11.45;4.43;;;14.10;99.90;;;;;;6721936;88;20901;-76
2021/05/27 14:42:25;;;;;;;7.32;3.70;;;14.40;99.90;;;;;;6724476;88;20202;-76
2021/05/27 14:52:25;;;;;;;5.80;2.95;;;14.60;99.90;;;;;;6719981;88;20215;-78
2021/05/27 15:02:26;;;;;;;7.65;3.40;;;14.90;99.90;;;;;;6720795;88;20248;-77
2021/05/27 15:12:26;;;;;;;8.57;3.00;;;14.90;99.90;;;;;;6719980;88;20185;-77
2021/05/27 15:22:28;;;;;;;6.20;2.60;;;15.10;99.90;;;;;;6718395;88;20229;-77
2021/05/27 15:32:29;;;;;;;7.47;3.20;;;15.00;99.90;;;;;;6718711;88;20723;-77
2021/05/27 15:42:30;;;;;;;7.78;3.25;;;14.80;99.90;;;;;;6722564;88;20658;-77
2021/05/27 15:52:31;;;;;;;6.90;3.05;;;14.10;99.90;;;;;;6717660;88;20236;-77
2021/05/27 16:02:33;;;;;;;8.00;3.10;;;13.70;99.90;;;;;;6729109;77;20701;-76
2021/05/27 16:12:34;;;;;;;9.65;3.30;;;13.70;99.90;;;;;;6714563;88;20213;-76
2021/05/27 16:22:34;;;;;;;6.90;3.07;;;13.60;99.90;;;;;;6717117;88;20210;-75
2021/05/27 16:32:35;;;;;;;9.43;3.03;;;13.40;99.90;;;;;;6719334;88;20181;-76
2021/05/27 16:42:35;;;;;;;6.68;3.62;;;13.20;99.90;;;;;;6719601;88;20200;-76
2021/05/27 16:52:36;;;;;;;9.25;4.10;;;13.10;99.90;;;;;;6715847;88;20255;-74
2021/05/27 17:02:36;;;;;;;11.35;4.10;;;12.80;99.90;;;;;;6730170;88;20208;-75
2021/05/27 17:12:37;;;;;;;12.80;4.00;;;12.90;99.90;;;;;;6736698;88;20181;-75
2021/05/27 17:22:44;;;;;;;10.40;3.60;;;12.90;99.90;;;;;;6736162;88;20325;-75
2021/05/27 17:32:45;;;;;;;6.90;3.25;;;12.90;99.90;;;;;;6736839;88;20196;-75
2021/05/27 17:42:46;;;;;;;9.00;4.28;;;12.80;99.90;;;;;;6738515;88;20193;-77
2021/05/27 17:52:47;;;;;;;9.03;4.10;;;12.70;99.90;;;;;;6739525;88;20309;-75
2021/05/27 18:02:49;;;;;;;11.10;4.65;;;12.60;99.90;;;;;;6738141;88;20709;-75
2021/05/27 18:12:49;;;;;;;10.20;4.93;;;12.30;99.90;;;;;;6734026;88;20684;-75
2021/05/27 18:22:50;;;;;;;11.07;5.10;;;12.10;99.90;;;;;;6738374;88;20222;-76
2021/05/27 18:32:52;;;;;;;12.43;5.43;;;11.80;99.90;;;;;;6738950;88;20194;-76
2021/05/27 18:42:53;;;;;;;11.43;5.75;;;11.60;99.90;;;;;;6739253;88;20206;-76
2021/05/27 18:52:55;;;;;;;13.30;6.07;;;11.60;99.90;;;;;;6737022;88;20217;-76
2021/05/27 19:02:56;;;;;;;11.27;5.55;;;11.60;99.90;;;;;;6730429;88;21047;-77
2021/05/27 19:12:57;;;;;;;14.13;5.00;;;11.60;99.90;;;;;;6736138;88;20284;-76
2021/05/27 19:23:00;;;;;;;14.45;5.00;;;11.70;99.90;;;;;;6742001;88;20522;-77
2021/05/27 19:33:01;;;;;;;12.00;5.40;;;11.50;99.90;;;;;;6738982;88;20192;-76
2021/05/27 19:43:01;;;;;;;9.82;5.18;;;11.50;99.90;;;;;;6740592;88;20239;-76
2021/05/27 19:53:02;;;;;;;16.87;5.97;;;11.50;99.90;;;;;;6742144;88;20188;-77
2021/05/27 20:03:06;;;;;;;17.15;6.20;;;11.50;99.90;;;;;;6739691;88;20509;-76
2021/05/27 20:13:07;;;;;;;15.65;6.30;;;11.40;99.90;;;;;;6746482;88;20215;-77
2021/05/27 20:23:07;;;;;;;12.75;5.87;;;11.20;99.90;;;;;;6734622;88;20209;-75
2021/05/27 20:33:11;;;;;;;12.15;5.37;;;11.30;99.90;;;;;;6731851;88;20206;-77
2021/05/27 20:43:11;;;;;;;11.25;5.10;;;11.10;99.90;;;;;;6725947;88;20340;-77
2021/05/27 20:53:12;;;;;;;9.95;4.87;;;11.10;99.90;;;;;;6737856;88;20752;-77
2021/05/27 21:03:12;;;;;;;12.10;5.03;;;11.10;99.90;;;;;;6744890;88;20356;-77
2021/05/27 21:13:13;;;;;;;12.88;5.65;;;10.90;99.90;;;;;;6742889;88;20267;-76
2021/05/27 21:23:13;;;;;;;16.55;5.95;;;10.90;99.90;;;;;;6741412;88;20201;-75
2021/05/27 21:33:14;;;;;;;19.00;6.20;;;10.80;99.90;;;;;;6735518;88;20874;-75
2021/05/27 21:43:15;;;;;;;14.55;6.03;;;10.80;99.90;;;;;;6742294;88;20304;-77
2021/05/27 21:53:16;;;;;;;15.80;6.85;;;10.80;99.90;;;;;;6742092;88;20719;-77
2021/05/27 22:03:17;;;;;;;12.07;6.47;;;10.80;99.90;;;;;;6743692;77;20187;-77
2021/05/27 22:13:18;;;;;;;13.82;5.97;;;10.80;99.90;;;;;;6730963;88;20665;-77
2021/05/27 22:23:19;;;;;;;13.25;6.65;;;10.70;99.90;;;;;;6719991;88;20220;-76
2021/05/27 22:33:20;;;;;;;15.95;6.72;;;10.70;99.90;;;;;;6722372;88;20190;-75
2021/05/27 22:43:20;;;;;;;14.90;6.93;;;10.60;99.90;;;;;;6729345;88;20285;-75
2021/05/27 22:53:21;;;;;;;16.37;6.53;;;10.50;99.90;;;;;;6726512;88;20660;-76
2021/05/27 23:03:22;;;;;;;15.55;7.35;;;10.30;99.90;;;;;;6727595;88;20324;-77
2021/05/27 23:13:22;;;;;;;17.45;7.05;;;10.20;99.90;;;;;;6724866;88;20319;-77
2021/05/27 23:23:23;;;;;;;15.25;6.97;;;10.30;99.90;;;;;;6726754;88;20213;-75
2021/05/27 23:33:24;;;;;;;13.82;6.78;;;10.40;99.90;;;;;;6728327;88;20221;-76
2021/05/27 23:43:24;;;;;;;17.03;7.23;;;10.40;99.90;;;;;;6728460;88;20234;-77
2021/05/27 23:53:25;;;;;;;14.67;7.27;;;10.30;99.90;;;;;;6734872;88;20200;-77
